createdAt,value
2019-03-27T00:00:09.861Z,35.45
2019-03-27T00:02:38.143Z,36.80
2019-03-27T00:05:06.405Z,45.63
2019-03-27T00:07:34.688Z,37.28
2019-03-27T00:10:04.788Z,43.52
2019-03-27T00:12:33.634Z,33.92
2019-03-27T00:15:11.998Z,39.10
2019-03-27T00:17:31.898Z,33.48
2019-03-27T00:20:00.377Z,32.98
2019-03-27T00:22:28.614Z,34.15
2019-03-27T00:24:56.867Z,40.80
2019-03-27T00:27:25.146Z,36.38
2019-03-27T00:29:53.397Z,39.50
2019-03-27T00:32:22.247Z,36.93
2019-03-27T00:34:50.504Z,41.13
2019-03-27T00:37:19.555Z,44.27
2019-03-27T00:39:48.646Z,37.28
2019-03-27T00:42:16.927Z,39.05
2019-03-27T00:44:45.181Z,36.83
2019-03-27T00:47:13.463Z,38.05
2019-03-27T00:49:41.717Z,38.92
2019-03-27T00:52:09.994Z,40.85
2019-03-27T00:54:38.816Z,33.53
2019-03-27T00:57:07.667Z,34.23
2019-03-27T00:59:35.923Z,37.50
2019-03-27T01:02:04.975Z,36.33
2019-03-27T01:04:33.231Z,42.43
2019-03-27T01:07:01.512Z,33.35
2019-03-27T01:09:29.790Z,39.67
2019-03-27T01:11:58.052Z,38.78
2019-03-27T01:14:26.305Z,36.30
2019-03-27T01:16:54.597Z,43.60
2019-03-27T01:19:23.615Z,37.53
2019-03-27T01:21:51.888Z,43.55
2019-03-27T01:24:20.714Z,46.20
2019-03-27T01:26:49.758Z,46.10
2019-03-27T01:29:18.009Z,42.80
2019-03-27T01:31:46.286Z,47.40
2019-03-27T01:34:15.115Z,48.50
2019-03-27T01:36:43.389Z,44.63
2019-03-27T01:39:11.651Z,40.78
2019-03-27T01:41:39.907Z,39.83
2019-03-27T01:44:08.186Z,50.10
2019-03-27T01:46:36.441Z,42.30
2019-03-27T01:49:04.717Z,41.33
2019-03-27T01:51:32.969Z,45.45
2019-03-27T01:54:02.019Z,48.52
2019-03-27T01:56:30.373Z,40.52
2019-03-27T01:58:58.633Z,41.33
2019-03-27T02:01:26.887Z,37.35
2019-03-27T02:03:55.172Z,42.67
2019-03-27T02:06:23.430Z,40.43
2019-03-27T02:08:51.712Z,39.00
2019-03-27T02:11:19.962Z,38.88
2019-03-27T02:13:48.247Z,43.83
2019-03-27T02:16:16.502Z,42.73
2019-03-27T02:18:44.777Z,44.63
2019-03-27T02:21:13.035Z,35.85
2019-03-27T02:23:41.315Z,42.73
2019-03-27T02:26:09.570Z,39.23
2019-03-27T02:28:37.846Z,34.92
2019-03-27T02:31:06.097Z,34.35
2019-03-27T02:33:34.710Z,35.78
2019-03-27T02:36:02.982Z,46.28
2019-03-27T02:38:31.238Z,34.40
2019-03-27T02:40:59.564Z,36.33
2019-03-27T02:43:27.844Z,34.75
2019-03-27T02:45:56.101Z,35.03
2019-03-27T02:48:24.380Z,38.28
2019-03-27T02:50:52.635Z,38.63
2019-03-27T02:53:20.920Z,32.58
2019-03-27T02:55:49.177Z,41.55
2019-03-27T02:58:18.796Z,38.35
2019-03-27T03:00:47.740Z,44.83
2019-03-27T03:03:16.004Z,49.15
2019-03-27T03:05:44.261Z,39.78
2019-03-27T03:08:12.536Z,47.23
2019-03-27T03:10:45.066Z,47.90
2019-03-27T03:13:10.792Z,50.40
2019-03-27T03:15:39.046Z,56.15
2019-03-27T03:18:07.327Z,53.60
2019-03-27T03:20:35.575Z,61.80
2019-03-27T03:23:03.858Z,54.60
2019-03-27T03:25:32.110Z,63.17
2019-03-27T03:28:00.395Z,63.58
2019-03-27T03:30:28.652Z,64.55
2019-03-27T03:32:57.485Z,60.92
2019-03-27T03:35:25.750Z,55.05
2019-03-27T03:37:54.006Z,56.50
2019-03-27T03:40:22.282Z,53.00
2019-03-27T03:42:50.542Z,56.45
2019-03-27T03:45:18.827Z,64.47
2019-03-27T03:47:47.068Z,64.65
2019-03-27T03:50:33.653Z,51.50
2019-03-27T03:53:01.910Z,44.90
2019-03-27T03:55:30.970Z,62.40
2019-03-27T03:57:59.790Z,62.58
2019-03-27T04:00:28.066Z,54.75
2019-03-27T04:02:56.392Z,48.78
2019-03-27T04:05:24.673Z,45.03
2019-03-27T04:07:52.945Z,54.15
2019-03-27T04:10:21.233Z,59.53
2019-03-27T04:12:49.491Z,46.50
2019-03-27T04:15:17.758Z,54.00
2019-03-27T04:17:46.012Z,54.05
2019-03-27T04:20:14.866Z,57.05
2019-03-27T04:22:43.118Z,56.23
2019-03-27T04:25:12.165Z,52.67
2019-03-27T04:27:40.667Z,47.78
2019-03-27T04:30:09.351Z,56.00
2019-03-27T04:32:37.600Z,52.48
2019-03-27T04:35:06.625Z,52.73
2019-03-27T04:37:34.879Z,51.80
2019-03-27T04:40:04.813Z,50.50
2019-03-27T04:42:33.718Z,52.60
2019-03-27T04:45:02.076Z,55.92
2019-03-27T04:47:32.465Z,57.23
2019-03-27T04:50:00.492Z,62.05
2019-03-27T04:52:28.758Z,52.23
2019-03-27T04:54:57.043Z,54.85
2019-03-27T04:57:25.299Z,56.35
2019-03-27T04:59:53.573Z,60.50
2019-03-27T05:02:21.826Z,56.65
2019-03-27T05:04:50.374Z,57.05
2019-03-27T05:07:19.403Z,52.20
2019-03-27T05:09:48.248Z,54.65
2019-03-27T05:12:16.507Z,58.30
2019-03-27T05:14:44.786Z,56.98
2019-03-27T05:17:13.611Z,51.50
2019-03-27T05:19:42.663Z,66.20
2019-03-27T05:22:10.919Z,53.30
2019-03-27T05:24:39.200Z,58.28
2019-03-27T05:27:07.463Z,53.48
2019-03-27T05:29:35.746Z,53.48
2019-03-27T05:32:04.776Z,56.53
2019-03-27T05:34:33.055Z,61.55
2019-03-27T05:37:01.319Z,49.58
2019-03-27T05:39:29.597Z,54.98
2019-03-27T05:41:58.627Z,48.15
2019-03-27T05:44:27.686Z,52.03
2019-03-27T05:46:56.011Z,49.55
2019-03-27T05:49:24.372Z,56.55
2019-03-27T05:51:52.634Z,54.50
2019-03-27T05:54:20.904Z,53.52
2019-03-27T05:56:49.163Z,55.03
2019-03-27T05:59:17.442Z,48.17
2019-03-27T06:01:46.263Z,54.67
2019-03-27T06:04:14.554Z,48.48
2019-03-27T06:06:42.825Z,54.60
2019-03-27T06:09:11.102Z,56.37
2019-03-27T06:11:39.358Z,47.23
2019-03-27T06:14:08.208Z,44.20
2019-03-27T06:16:36.537Z,44.63
2019-03-27T06:19:04.790Z,49.85
2019-03-27T06:21:33.149Z,52.13
2019-03-27T06:24:01.402Z,45.85
2019-03-27T06:26:29.680Z,43.98
2019-03-27T06:28:57.935Z,45.03
2019-03-27T06:31:26.215Z,45.90
2019-03-27T06:33:55.322Z,43.58
2019-03-27T06:36:23.599Z,57.13
2019-03-27T06:38:51.860Z,41.15
2019-03-27T06:41:20.142Z,44.50
2019-03-27T06:43:48.394Z,44.08
2019-03-27T06:46:17.009Z,50.28
2019-03-27T06:48:45.259Z,39.23
2019-03-27T06:51:13.535Z,47.85
2019-03-27T06:53:41.791Z,46.68
2019-03-27T06:56:10.218Z,45.80
2019-03-27T06:58:38.478Z,44.63
2019-03-27T07:01:06.761Z,44.05
2019-03-27T07:03:35.019Z,41.58
2019-03-27T07:06:03.859Z,43.42
2019-03-27T07:08:32.109Z,42.95
2019-03-27T07:11:00.392Z,41.53
2019-03-27T07:13:28.657Z,49.73
2019-03-27T07:15:56.930Z,44.90
2019-03-27T07:18:25.194Z,39.42
2019-03-27T07:20:53.472Z,41.68
2019-03-27T07:23:21.725Z,37.35
2019-03-27T07:25:51.342Z,48.10
2019-03-27T07:28:19.598Z,41.80
2019-03-27T07:30:47.879Z,48.73
2019-03-27T07:33:16.134Z,51.55
2019-03-27T07:35:44.448Z,46.90
2019-03-27T07:38:13.238Z,45.78
2019-03-27T07:40:41.515Z,44.80
2019-03-27T07:43:09.774Z,46.00
2019-03-27T07:45:38.051Z,51.70
2019-03-27T07:48:07.154Z,44.03
2019-03-27T07:50:35.434Z,43.78
2019-03-27T07:53:04.803Z,36.68
2019-03-27T07:55:33.074Z,38.23
2019-03-27T07:58:01.904Z,42.13
2019-03-27T08:00:30.747Z,44.95
2019-03-27T08:02:59.010Z,42.45
2019-03-27T08:05:27.297Z,36.45
2019-03-27T08:07:55.557Z,38.65
2019-03-27T08:10:23.830Z,41.88
2019-03-27T08:12:52.862Z,37.05
2019-03-27T08:15:21.138Z,35.35
2019-03-27T08:17:49.731Z,47.17
2019-03-27T08:20:18.012Z,35.95
2019-03-27T08:22:46.265Z,34.10
2019-03-27T08:25:14.863Z,38.13
2019-03-27T08:27:43.144Z,37.80
2019-03-27T08:30:14.900Z,37.00
2019-03-27T08:32:43.177Z,30.43
2019-03-27T08:35:11.507Z,33.95
2019-03-27T08:37:39.781Z,37.30
2019-03-27T08:40:09.680Z,38.60
2019-03-27T08:42:38.552Z,33.75
2019-03-27T08:45:07.619Z,27.73
2019-03-27T08:47:35.898Z,31.40
2019-03-27T08:50:07.350Z,28.80
2019-03-27T08:52:36.448Z,31.70
2019-03-27T08:55:06.406Z,31.70
2019-03-27T08:57:34.690Z,28.42
2019-03-27T09:00:02.963Z,30.55
2019-03-27T09:02:31.227Z,27.07
2019-03-27T09:04:59.483Z,29.02
2019-03-27T09:07:27.761Z,27.60
2019-03-27T09:09:56.018Z,27.50
2019-03-27T09:12:24.298Z,30.70
2019-03-27T09:14:52.552Z,23.90
2019-03-27T09:17:21.607Z,30.23
2019-03-27T09:19:49.860Z,32.30
2019-03-27T09:22:18.138Z,29.23
2019-03-27T09:24:46.393Z,23.92
2019-03-27T09:27:14.674Z,26.87
2019-03-27T09:29:42.931Z,26.12
2019-03-27T09:32:11.778Z,23.27
2019-03-27T09:34:40.038Z,28.10
2019-03-27T09:37:08.314Z,23.38
2019-03-27T09:39:36.574Z,23.92
2019-03-27T09:42:05.623Z,25.52
2019-03-27T09:44:33.890Z,21.37
2019-03-27T09:47:02.171Z,26.02
2019-03-27T09:49:30.437Z,24.07
2019-03-27T09:51:58.721Z,23.42
2019-03-27T09:54:26.981Z,22.27
2019-03-27T09:56:55.263Z,19.80
2019-03-27T09:59:23.529Z,26.30
2019-03-27T10:01:51.811Z,21.80
2019-03-27T10:04:20.073Z,19.15
2019-03-27T10:06:48.922Z,19.75
2019-03-27T10:09:17.180Z,18.52
2019-03-27T10:11:46.133Z,21.62
2019-03-27T10:14:14.386Z,20.72
2019-03-27T10:16:42.674Z,20.20
2019-03-27T10:19:10.933Z,20.52
2019-03-27T10:21:39.210Z,22.70
2019-03-27T10:24:07.473Z,24.27
2019-03-27T10:26:36.503Z,17.80
2019-03-27T10:29:05.128Z,19.55
2019-03-27T10:31:33.462Z,22.07
2019-03-27T10:34:01.744Z,23.07
2019-03-27T10:36:30.002Z,21.77
2019-03-27T10:38:58.294Z,20.85
2019-03-27T10:41:26.540Z,18.45
2019-03-27T10:43:55.587Z,20.60
2019-03-27T10:46:23.838Z,18.07
2019-03-27T10:48:53.152Z,16.45
2019-03-27T10:51:21.553Z,16.80
2019-03-27T10:53:49.832Z,14.23
2019-03-27T10:56:18.086Z,15.00
2019-03-27T10:58:46.366Z,15.23
2019-03-27T11:01:14.622Z,17.55
2019-03-27T11:03:42.899Z,18.98
2019-03-27T11:06:11.154Z,18.82
2019-03-27T11:08:39.437Z,18.45
2019-03-27T11:11:07.689Z,14.85
2019-03-27T11:13:35.966Z,21.42
2019-03-27T11:16:04.989Z,19.65
2019-03-27T11:18:33.267Z,16.10
2019-03-27T11:21:01.524Z,15.50
2019-03-27T11:23:29.803Z,20.32
2019-03-27T11:25:58.056Z,17.73
2019-03-27T11:28:26.342Z,20.55
2019-03-27T11:30:54.600Z,18.35
2019-03-27T11:33:22.881Z,15.50
2019-03-27T11:35:51.842Z,17.05
2019-03-27T11:38:20.296Z,14.05
2019-03-27T11:40:48.551Z,17.52
2019-03-27T11:43:16.825Z,11.12
2019-03-27T11:45:45.083Z,16.65
2019-03-27T11:48:13.361Z,10.72
2019-03-27T11:50:45.286Z,16.35
2019-03-27T11:53:11.971Z,17.55
2019-03-27T11:55:40.229Z,12.43
2019-03-27T11:58:08.516Z,14.18
2019-03-27T12:00:37.428Z,11.50
2019-03-27T12:03:05.703Z,14.35
2019-03-27T12:05:33.960Z,14.30
2019-03-27T12:08:03.018Z,14.60
2019-03-27T12:10:31.271Z,15.38
2019-03-27T12:13:00.112Z,11.88
2019-03-27T12:15:39.515Z,11.45
2019-03-27T12:18:08.435Z,12.20
2019-03-27T12:20:36.681Z,12.60
2019-03-27T12:23:05.807Z,11.00
2019-03-27T12:25:34.060Z,12.43
2019-03-27T12:28:02.315Z,12.10
2019-03-27T12:30:31.362Z,11.80
2019-03-27T12:32:59.889Z,12.23
2019-03-27T12:35:28.738Z,14.15
2019-03-27T12:37:56.995Z,16.93
2019-03-27T12:40:25.268Z,12.47
2019-03-27T12:42:53.522Z,10.70
2019-03-27T12:45:21.796Z,13.68
2019-03-27T12:47:50.050Z,11.70
2019-03-27T12:50:18.330Z,15.45
2019-03-27T12:52:47.451Z,17.57
2019-03-27T12:55:16.496Z,16.55
2019-03-27T12:57:44.749Z,13.18
2019-03-27T13:00:13.026Z,14.78
2019-03-27T13:02:41.851Z,13.38
2019-03-27T13:05:10.132Z,14.30
2019-03-27T13:07:49.456Z,9.60
2019-03-27T13:10:08.953Z,13.18
2019-03-27T13:12:37.200Z,9.80
2019-03-27T13:15:07.107Z,10.65
2019-03-27T13:17:35.357Z,12.60
2019-03-27T13:20:04.878Z,13.48
2019-03-27T13:22:33.140Z,12.10
2019-03-27T13:25:01.429Z,10.38
2019-03-27T13:27:30.254Z,14.43
2019-03-27T13:29:58.535Z,10.98
2019-03-27T13:32:26.785Z,13.30
2019-03-27T13:34:55.062Z,11.75
2019-03-27T13:37:24.658Z,16.82
2019-03-27T13:39:52.937Z,11.88
2019-03-27T13:42:21.191Z,12.25
2019-03-27T13:44:49.471Z,11.33
2019-03-27T13:47:18.499Z,10.95
2019-03-27T13:49:46.773Z,14.50
2019-03-27T13:52:15.323Z,18.35
2019-03-27T13:54:43.603Z,11.78
2019-03-27T13:57:11.860Z,11.38
2019-03-27T13:59:40.138Z,12.65
2019-03-27T14:02:08.394Z,15.65
2019-03-27T14:04:36.668Z,12.58
2019-03-27T14:07:04.994Z,13.13
2019-03-27T14:09:33.833Z,11.90
2019-03-27T14:12:02.093Z,11.30
2019-03-27T14:14:31.135Z,11.85
2019-03-27T14:16:59.391Z,10.85
2019-03-27T14:19:27.667Z,14.13
2019-03-27T14:21:55.940Z,14.10
2019-03-27T14:24:24.209Z,13.65
2019-03-27T14:26:53.236Z,10.25
2019-03-27T14:29:21.505Z,10.95
2019-03-27T14:31:49.898Z,13.55
2019-03-27T14:34:18.179Z,10.82
2019-03-27T14:36:47.220Z,9.15
2019-03-27T14:39:15.479Z,10.82
2019-03-27T14:41:43.739Z,12.07
2019-03-27T14:44:12.069Z,13.68
2019-03-27T14:46:41.116Z,9.10
2019-03-27T14:49:09.371Z,11.80
2019-03-27T14:51:37.640Z,8.53
2019-03-27T14:54:05.898Z,8.25
2019-03-27T14:56:34.168Z,8.88
2019-03-27T14:59:02.427Z,10.18
2019-03-27T15:01:30.706Z,9.23
2019-03-27T15:03:59.531Z,8.18
2019-03-27T15:06:27.822Z,9.20
2019-03-27T15:08:56.645Z,14.05
2019-03-27T15:11:24.927Z,12.25
2019-03-27T15:13:53.187Z,11.38
2019-03-27T15:16:22.234Z,8.05
2019-03-27T15:18:52.568Z,11.55
2019-03-27T15:21:20.552Z,11.78
2019-03-27T15:23:49.162Z,8.78
2019-03-27T15:26:17.438Z,9.95
2019-03-27T15:28:45.696Z,11.40
2019-03-27T15:31:20.287Z,10.60
2019-03-27T15:33:43.945Z,10.20
2019-03-27T15:36:12.214Z,9.80
2019-03-27T15:38:40.468Z,11.50
2019-03-27T15:41:08.741Z,10.60
2019-03-27T15:43:36.994Z,12.95
2019-03-27T15:46:05.269Z,11.70
2019-03-27T15:48:33.522Z,10.30
2019-03-27T15:51:01.795Z,10.23
2019-03-27T15:53:30.041Z,10.10
2019-03-27T15:55:58.312Z,11.48
2019-03-27T15:58:26.581Z,8.85
2019-03-27T16:00:54.838Z,11.65
2019-03-27T16:03:23.092Z,6.97
2019-03-27T16:05:51.357Z,8.13
2019-03-27T16:08:19.895Z,13.08
2019-03-27T16:10:48.164Z,7.50
2019-03-27T16:13:16.411Z,8.43
2019-03-27T16:15:44.681Z,9.98
2019-03-27T16:18:16.294Z,10.93
2019-03-27T16:20:43.740Z,8.13
2019-03-27T16:23:12.021Z,11.08
2019-03-27T16:25:40.354Z,12.13
2019-03-27T16:28:09.196Z,11.15
2019-03-27T16:30:37.449Z,11.08
2019-03-27T16:33:05.715Z,9.33
2019-03-27T16:35:33.965Z,8.53
2019-03-27T16:38:02.809Z,13.50
2019-03-27T16:40:44.137Z,9.25
2019-03-27T16:43:12.471Z,9.40
2019-03-27T16:45:40.726Z,11.50
2019-03-27T16:48:08.997Z,10.85
2019-03-27T16:50:37.253Z,16.70
2019-03-27T16:53:05.536Z,10.48
2019-03-27T16:55:34.162Z,9.65
2019-03-27T16:58:02.428Z,8.53
2019-03-27T17:00:31.027Z,8.03
2019-03-27T17:02:59.304Z,11.20
2019-03-27T17:05:27.557Z,10.08
2019-03-27T17:07:55.838Z,10.53
2019-03-27T17:10:24.085Z,9.30
2019-03-27T17:12:52.809Z,8.20
2019-03-27T17:15:24.229Z,9.18
2019-03-27T17:17:52.863Z,9.13
2019-03-27T17:20:21.231Z,7.95
2019-03-27T17:22:50.268Z,6.20
2019-03-27T17:25:18.522Z,6.35
2019-03-27T17:27:46.797Z,8.28
2019-03-27T17:30:15.049Z,8.60
2019-03-27T17:32:43.328Z,11.43
2019-03-27T17:35:13.200Z,8.73
2019-03-27T17:37:41.477Z,9.85
2019-03-27T17:40:09.740Z,9.08
2019-03-27T17:42:38.013Z,7.10
2019-03-27T17:45:07.736Z,9.35
2019-03-27T17:47:36.040Z,9.78
2019-03-27T17:50:05.027Z,9.38
2019-03-27T17:52:33.877Z,7.42
2019-03-27T17:55:02.127Z,8.33
2019-03-27T17:57:30.402Z,6.87
2019-03-27T17:59:58.666Z,11.48
2019-03-27T18:02:27.792Z,13.95
2019-03-27T18:04:56.041Z,8.70
2019-03-27T18:07:24.891Z,9.45
2019-03-27T18:09:53.143Z,8.65
2019-03-27T18:12:21.890Z,12.18
2019-03-27T18:14:50.708Z,8.25
2019-03-27T18:17:23.274Z,9.68
2019-03-27T18:19:51.779Z,12.18
2019-03-27T18:22:20.059Z,9.15
2019-03-27T18:24:48.310Z,10.00
2019-03-27T18:27:16.586Z,7.85
2019-03-27T18:29:45.610Z,9.20
2019-03-27T18:32:14.535Z,8.93
2019-03-27T18:34:42.835Z,9.45
2019-03-27T18:37:11.087Z,8.78
2019-03-27T18:39:39.356Z,8.60
2019-03-27T18:42:07.605Z,8.75
2019-03-27T18:44:35.876Z,9.78
2019-03-27T18:47:04.903Z,10.72
2019-03-27T18:49:33.180Z,10.95
2019-03-27T18:52:01.428Z,9.20
2019-03-27T18:54:29.702Z,9.73
2019-03-27T18:56:58.298Z,8.83
2019-03-27T18:59:26.574Z,8.20
2019-03-27T19:01:55.160Z,10.35
2019-03-27T19:04:23.435Z,11.03
2019-03-27T19:06:51.698Z,8.45
2019-03-27T19:09:19.980Z,9.60
2019-03-27T19:11:48.231Z,12.88
2019-03-27T19:14:16.508Z,9.18
2019-03-27T19:16:44.768Z,12.65
2019-03-27T19:19:13.617Z,9.58
2019-03-27T19:21:41.875Z,12.28
2019-03-27T19:24:16.149Z,11.78
2019-03-27T19:26:40.140Z,15.50
2019-03-27T19:29:08.422Z,11.08
2019-03-27T19:31:36.677Z,8.85
2019-03-27T19:34:04.964Z,10.25
2019-03-27T19:36:33.991Z,13.65
2019-03-27T19:39:02.268Z,10.72
2019-03-27T19:41:30.598Z,12.82
2019-03-27T19:43:58.874Z,8.75
2019-03-27T19:46:27.129Z,13.20
2019-03-27T19:48:55.407Z,10.63
2019-03-27T19:51:23.662Z,13.55
2019-03-27T19:53:51.939Z,11.53
2019-03-27T19:56:20.235Z,14.58
2019-03-27T19:58:48.512Z,11.63
2019-03-27T20:01:17.813Z,10.20
2019-03-27T20:03:46.096Z,12.60
2019-03-27T20:06:14.355Z,12.98
2019-03-27T20:08:43.203Z,14.28
2019-03-27T20:11:11.454Z,12.55
2019-03-27T20:13:39.734Z,11.50
2019-03-27T20:16:07.993Z,15.10
2019-03-27T20:18:36.270Z,14.28
2019-03-27T20:21:04.530Z,11.80
2019-03-27T20:23:32.811Z,14.10
2019-03-27T20:26:01.215Z,10.23
2019-03-27T20:28:29.519Z,10.72
2019-03-27T20:30:57.778Z,12.85
2019-03-27T20:33:26.701Z,13.03
2019-03-27T20:35:54.980Z,11.48
2019-03-27T20:38:23.248Z,10.35
2019-03-27T20:40:51.519Z,11.40
2019-03-27T20:43:20.546Z,17.35
2019-03-27T20:45:48.834Z,11.48
2019-03-27T20:48:17.090Z,12.80
2019-03-27T20:50:45.376Z,12.68
2019-03-27T20:53:13.894Z,14.18
2019-03-27T20:55:42.171Z,12.43
2019-03-27T20:58:10.755Z,14.95
2019-03-27T21:00:39.034Z,12.18
2019-03-27T21:03:07.295Z,12.37
2019-03-27T21:05:35.629Z,14.70
2019-03-27T21:08:04.642Z,14.05
2019-03-27T21:10:32.929Z,13.43
2019-03-27T21:13:01.756Z,16.07
2019-03-27T21:15:30.033Z,15.80
2019-03-27T21:17:58.977Z,15.23
2019-03-27T21:20:27.246Z,13.62
2019-03-27T21:22:55.939Z,14.00
2019-03-27T21:25:24.786Z,12.30
2019-03-27T21:27:53.046Z,12.07
2019-03-27T21:30:21.690Z,17.75
2019-03-27T21:32:49.947Z,13.65
2019-03-27T21:35:18.230Z,11.90
2019-03-27T21:37:46.490Z,14.45
2019-03-27T21:40:14.840Z,12.58
2019-03-27T21:42:43.111Z,17.15
2019-03-27T21:45:11.382Z,14.03
2019-03-27T21:47:39.638Z,14.85
2019-03-27T21:50:08.553Z,13.80
2019-03-27T21:52:36.811Z,13.48
2019-03-27T21:55:21.476Z,17.23
2019-03-27T21:57:38.329Z,13.40
2019-03-27T22:00:06.684Z,15.55
2019-03-27T22:02:34.939Z,22.87
2019-03-27T22:05:03.216Z,13.00
2019-03-27T22:07:31.470Z,12.78
2019-03-27T22:09:59.751Z,15.20
2019-03-27T22:12:28.573Z,15.63
2019-03-27T22:14:56.853Z,19.87
2019-03-27T22:17:25.680Z,17.20
2019-03-27T22:19:53.961Z,14.50
2019-03-27T22:22:22.217Z,18.57
2019-03-27T22:24:50.495Z,17.65
2019-03-27T22:27:18.750Z,17.17
2019-03-27T22:29:47.031Z,19.95
2019-03-27T22:32:15.288Z,23.65
2019-03-27T22:34:44.426Z,19.30
2019-03-27T22:37:13.583Z,19.67
2019-03-27T22:39:42.217Z,17.60
2019-03-27T22:42:10.483Z,19.00
2019-03-27T22:44:38.759Z,22.30
2019-03-27T22:47:07.024Z,18.67
2019-03-27T22:49:35.383Z,19.02
2019-03-27T22:52:03.643Z,18.10
2019-03-27T22:54:31.932Z,21.00
2019-03-27T22:57:00.195Z,20.37
2019-03-27T22:59:28.479Z,21.85
2019-03-27T23:01:56.740Z,24.30
2019-03-27T23:04:25.026Z,27.95
2019-03-27T23:06:54.048Z,21.68
2019-03-27T23:09:22.331Z,19.90
2019-03-27T23:11:51.161Z,18.32
2019-03-27T23:14:20.117Z,20.40
2019-03-27T23:16:48.374Z,22.37
2019-03-27T23:19:16.632Z,19.92
2019-03-27T23:21:44.921Z,23.47
2019-03-27T23:24:13.952Z,22.67
2019-03-27T23:26:42.240Z,23.40
2019-03-27T23:29:10.503Z,24.82
2019-03-27T23:31:38.789Z,25.40
2019-03-27T23:34:07.052Z,25.20
2019-03-27T23:36:35.354Z,24.37
2019-03-27T23:39:03.945Z,27.02
2019-03-27T23:41:32.224Z,25.82
2019-03-27T23:44:00.484Z,23.22
2019-03-27T23:46:28.772Z,27.10
2019-03-27T23:48:57.030Z,25.85
2019-03-27T23:51:25.327Z,27.93
2019-03-27T23:53:54.447Z,25.12
2019-03-27T23:56:23.302Z,28.17
2019-03-27T23:58:51.534Z,29.50
